Airfield :
LOGIN :

Register | Disclaimer

   EN    FR    IT 

 










Legend :    VFR   Marginal VFR   IFR   Intensive IFR   Very Intensive IFR
Visi :
Ceiling :
>= 8 km
>= 3000ft
5 to 8 km
1000 to 3000 ft
1500m to 5 km
500 to 1000 ft
800 to 1500m
200 to 500 ft
< 800m
< 200 ft
Symbols :   Thunderstorms  Fog  Heavy snow  Heavy precipitations  Wind > 20 kt
SIGMETs :     Misc.  Thunderstorms  Icing  Turbulence  Mountain Waves  Volcanic Ashes







- Airport Elevation : 183 ft


LIBA - Amendola Foggia

CURRENT METAR :
  • 171755Z 09002KT 7000 NSC 17/17 Q1023 RMK SKC VIS MIN 7000 WIND THR11 VRB01KT WIND THR29 /////KT WHT

EXPIRED METARs :
  • 171655Z 10003KT 8000 NSC 17/17 Q1023 RMK FEW FEW220 VIS MIN 8000 WIND THR11 11004KT WIND THR29 /////KT BLU
  • 171555Z 10007KT CAVOK 20/18 Q1022 RMK SCT SCT220 VIS MIN 9999 WIND THR11 10008KT WIND THR29 /////KT BLU

TAF TAF LIBA
Valid from the 17 at 18:00 until the 18 at 03:00 UTC


171700Z 1718/1803 VRB05KT 7000 NSC
TEMPO 1720/1722 4000 BR
No reported NOTAMs for that airfield.



MET'MAP, your aeronautical weather chart ! - Copyright ORBIFLY December 2007 - Disclaimer

ORBIFLY MET'MAP TEAM :

Programming & Development : Alexandra Zaïnal
Concept & Development : Baudouin d'Aumeries
Co-Development & Prog : Marc-Olivier Méhu
Technical & hardware support : Manuel Goepfert

Contact : metmap@orbifly.com




SOURCES & CREDITS :

   NOAA